weather.gov     
National Weather Service

Terminal Aerodrome Forecast
NWS Homepage
This page is being discontinued on March 12, 2014.
The same data is available at this site. Please update your bookmarks.
Thank you, and we apologize for the inconvenience.
Please send an email to SR-SRH.Webmaster@noaa.gov with any concerns.


Current Version
Previous Version:    01  02  03  04  05  06  07  08  09  10  11  12  13  14  15  16  17  18  19  20  21  22  23  24  25  26  27  28  29  30  
   31  32  33  34  35  36  37  38  
[Printable]
363
FTUS41 KBTV 220044 AAA
TAFBTV
TAF AMD
KBTV 220044Z 2201/2224 35006KT P6SM VCSH SCT004 OVC035
      TEMPO 2201/2205 6SM -SHRA BR OVC004
     FM220600 35005KT P6SM VCSH BKN025 OVC050
     FM220900 35003KT P6SM VCSH OVC010
     FM221400 35008KT P6SM VCSH BKN015 OVC040
     FM221800 35012G17KT 5SM -RA BR OVC015=




363
FTUS41 KBTV 220044 AAA
TAFBTV
TAF AMD
KBTV 220044Z 2201/2224 35006KT P6SM VCSH SCT004 OVC035
      TEMPO 2201/2205 6SM -SHRA BR OVC004
     FM220600 35005KT P6SM VCSH BKN025 OVC050
     FM220900 35003KT P6SM VCSH OVC010
     FM221400 35008KT P6SM VCSH BKN015 OVC040
     FM221800 35012G17KT 5SM -RA BR OVC015=


U.S. Dept. of Commerce
NOAA National Weather Service
1325 East West Highway
Silver Spring, MD 20910
E-mail: w-nws.webmaster@noaa.gov
Page last modified: May 16, 2007
NATIONAL WEATHER SERVICE: for Safety, for Work, for Fun - FOR LIFE